sensor_id;sensor_type;location;lat;lon;timestamp;pressure;altitude;pressure_sealevel;temperature;humidity
84443;BME280;74681;0.000;0.000;2024-01-30T00:00:55;101176.03;;;22.29;55.24
84443;BME280;74681;0.000;0.000;2024-01-30T00:03:20;101177.94;;;22.28;55.07
84443;BME280;74681;0.000;0.000;2024-01-30T00:05:46;101179.84;;;22.28;55.25
84443;BME280;74681;0.000;0.000;2024-01-30T00:08:11;101167.22;;;22.27;55.18
84443;BME280;74681;0.000;0.000;2024-01-30T00:10:37;101176.28;;;22.27;55.13
84443;BME280;74681;0.000;0.000;2024-01-30T00:13:02;101177.34;;;22.26;55.15
84443;BME280;74681;0.000;0.000;2024-01-30T00:15:27;101174.84;;;22.25;55.03
84443;BME280;74681;0.000;0.000;2024-01-30T00:17:53;101170.19;;;22.25;55.04
84443;BME280;74681;0.000;0.000;2024-01-30T00:20:18;101176.75;;;22.24;55.20
84443;BME280;74681;0.000;0.000;2024-01-30T00:22:44;101174.03;;;22.24;55.09
84443;BME280;74681;0.000;0.000;2024-01-30T00:25:09;101175.91;;;22.24;55.10
84443;BME280;74681;0.000;0.000;2024-01-30T00:27:35;101177.81;;;22.23;55.16
84443;BME280;74681;0.000;0.000;2024-01-30T00:30:00;101172.34;;;22.23;54.95
84443;BME280;74681;0.000;0.000;2024-01-30T00:32:25;101172.34;;;22.23;55.11
84443;BME280;74681;0.000;0.000;2024-01-30T00:34:51;101179.72;;;22.23;55.10
84443;BME280;74681;0.000;0.000;2024-01-30T00:37:16;101181.63;;;22.22;54.90
84443;BME280;74681;0.000;0.000;2024-01-30T00:39:41;101178.88;;;22.22;55.09
84443;BME280;74681;0.000;0.000;2024-01-30T00:42:07;101174.25;;;22.23;55.07
84443;BME280;74681;0.000;0.000;2024-01-30T00:44:34;101187.09;;;22.22;55.09
84443;BME280;74681;0.000;0.000;2024-01-30T00:47:00;101182.72;;;22.21;54.88
84443;BME280;74681;0.000;0.000;2024-01-30T00:49:25;101189.03;;;22.22;54.93
84443;BME280;74681;0.000;0.000;2024-01-30T00:51:50;101179.97;;;22.21;54.93
84443;BME280;74681;0.000;0.000;2024-01-30T00:54:16;101187.34;;;22.21;55.01
84443;BME280;74681;0.000;0.000;2024-01-30T00:56:41;101179.13;;;22.21;54.93
84443;BME280;74681;0.000;0.000;2024-01-30T00:59:07;101176.41;;;22.21;54.83
84443;BME280;74681;0.000;0.000;2024-01-30T01:04:37;101173.91;;;22.19;55.07
84443;BME280;74681;0.000;0.000;2024-01-30T01:07:03;101177.47;;;22.20;55.03
84443;BME280;74681;0.000;0.000;2024-01-30T01:09:28;101175.56;;;22.20;54.86
84443;BME280;74681;0.000;0.000;2024-01-30T01:11:54;101173.66;;;22.21;54.90
84443;BME280;74681;0.000;0.000;2024-01-30T01:14:19;101172.00;;;22.20;55.00
84443;BME280;74681;0.000;0.000;2024-01-30T01:16:44;101170.34;;;22.19;54.95
84443;BME280;74681;0.000;0.000;2024-01-30T01:19:10;101172.25;;;22.18;54.96
84443;BME280;74681;0.000;0.000;2024-01-30T01:21:35;101171.19;;;22.19;54.99
84443;BME280;74681;0.000;0.000;2024-01-30T01:24:01;101174.97;;;22.18;55.03
84443;BME280;74681;0.000;0.000;2024-01-30T01:26:26;101180.44;;;22.18;55.02
84443;BME280;74681;0.000;0.000;2024-01-30T01:28:51;101172.25;;;22.18;54.89
84443;BME280;74681;0.000;0.000;2024-01-30T01:31:17;101168.66;;;22.18;55.04
84443;BME280;74681;0.000;0.000;2024-01-30T01:33:42;101172.25;;;22.18;54.86
84443;BME280;74681;0.000;0.000;2024-01-30T01:36:08;101167.84;;;22.17;54.73
84443;BME280;74681;0.000;0.000;2024-01-30T01:38:33;101168.09;;;22.16;54.90
84443;BME280;74681;0.000;0.000;2024-01-30T01:41:01;101165.34;;;22.16;54.82
84443;BME280;74681;0.000;0.000;2024-01-30T01:43:27;101162.63;;;22.16;54.88
84443;BME280;74681;0.000;0.000;2024-01-30T01:45:52;101160.72;;;22.16;54.99
84443;BME280;74681;0.000;0.000;2024-01-30T01:48:17;101164.50;;;22.15;54.83
84443;BME280;74681;0.000;0.000;2024-01-30T01:50:43;101156.31;;;22.15;54.73
84443;BME280;74681;0.000;0.000;2024-01-30T01:53:08;101165.34;;;22.16;54.75
84443;BME280;74681;0.000;0.000;2024-01-30T01:55:34;101161.78;;;22.15;54.81
84443;BME280;74681;0.000;0.000;2024-01-30T01:58:00;101152.72;;;22.15;54.81
84443;BME280;74681;0.000;0.000;2024-01-30T02:00:26;101154.63;;;22.14;54.94
84443;BME280;74681;0.000;0.000;2024-01-30T02:02:52;101145.63;;;22.14;54.85
84443;BME280;74681;0.000;0.000;2024-01-30T02:05:19;101156.56;;;22.14;54.76
84443;BME280;74681;0.000;0.000;2024-01-30T02:07:44;101155.47;;;22.15;54.75
84443;BME280;74681;0.000;0.000;2024-01-30T02:10:10;101159.28;;;22.14;54.91
84443;BME280;74681;0.000;0.000;2024-01-30T02:12:35;101151.09;;;22.14;55.02
84443;BME280;74681;0.000;0.000;2024-01-30T02:15:01;101152.97;;;22.13;54.73
84443;BME280;74681;0.000;0.000;2024-01-30T02:17:26;101156.78;;;22.12;54.83
84443;BME280;74681;0.000;0.000;2024-01-30T02:19:51;101155.94;;;22.12;54.80
84443;BME280;74681;0.000;0.000;2024-01-30T02:22:17;101155.72;;;22.13;54.86
84443;BME280;74681;0.000;0.000;2024-01-30T02:24:43;101154.03;;;22.12;54.79
84443;BME280;74681;0.000;0.000;2024-01-30T02:27:08;101154.03;;;22.12;54.85
84443;BME280;74681;0.000;0.000;2024-01-30T02:29:34;101149.63;;;22.11;54.79
84443;BME280;74681;0.000;0.000;2024-01-30T02:31:59;101155.94;;;22.12;54.80
84443;BME280;74681;0.000;0.000;2024-01-30T02:34:24;101166.03;;;22.11;54.71
84443;BME280;74681;0.000;0.000;2024-01-30T02:36:50;101157.84;;;22.11;54.96
84443;BME280;74681;0.000;0.000;2024-01-30T02:39:15;101157.84;;;22.11;54.92
84443;BME280;74681;0.000;0.000;2024-01-30T02:41:40;101152.63;;;22.10;54.80
84443;BME280;74681;0.000;0.000;2024-01-30T02:44:06;101156.19;;;22.10;54.84
84443;BME280;74681;0.000;0.000;2024-01-30T02:46:31;101159.78;;;22.11;54.87
84443;BME280;74681;0.000;0.000;2024-01-30T02:48:56;101153.47;;;22.10;54.71
84443;BME280;74681;0.000;0.000;2024-01-30T02:51:22;101155.34;;;22.10;54.84
84443;BME280;74681;0.000;0.000;2024-01-30T02:53:47;101163.56;;;22.10;54.81
84443;BME280;74681;0.000;0.000;2024-01-30T02:56:12;101156.41;;;22.09;54.73
84443;BME280;74681;0.000;0.000;2024-01-30T02:58:41;101154.53;;;22.09;54.90
84443;BME280;74681;0.000;0.000;2024-01-30T03:01:07;101165.47;;;22.09;54.59
84443;BME280;74681;0.000;0.000;2024-01-30T03:03:32;101161.88;;;22.09;54.97
84443;BME280;74681;0.000;0.000;2024-01-30T03:05:59;101162.97;;;22.08;54.75
84443;BME280;74681;0.000;0.000;2024-01-30T03:08:24;101157.50;;;22.08;54.75
84443;BME280;74681;0.000;0.000;2024-01-30T03:10:50;101158.56;;;22.07;54.70
84443;BME280;74681;0.000;0.000;2024-01-30T03:13:15;101150.94;;;22.09;54.74
84443;BME280;74681;0.000;0.000;2024-01-30T03:15:40;101153.09;;;22.07;54.78
84443;BME280;74681;0.000;0.000;2024-01-30T03:18:06;101147.63;;;22.07;54.71
84443;BME280;74681;0.000;0.000;2024-01-30T03:20:31;101146.78;;;22.06;54.61
84443;BME280;74681;0.000;0.000;2024-01-30T03:22:57;101152.25;;;22.06;54.62
84443;BME280;74681;0.000;0.000;2024-01-30T03:25:22;101145.94;;;22.05;54.61
84443;BME280;74681;0.000;0.000;2024-01-30T03:27:47;101145.94;;;22.05;54.82
84443;BME280;74681;0.000;0.000;2024-01-30T03:30:13;101139.69;;;22.05;54.64
84443;BME280;74681;0.000;0.000;2024-01-30T03:32:38;101140.72;;;22.04;54.65
84443;BME280;74681;0.000;0.000;2024-01-30T03:35:04;101145.94;;;22.05;54.70
84443;BME280;74681;0.000;0.000;2024-01-30T03:37:29;101150.63;;;22.05;54.74
84443;BME280;74681;0.000;0.000;2024-01-30T03:39:55;101148.94;;;22.04;54.71
84443;BME280;74681;0.000;0.000;2024-01-30T03:42:20;101142.63;;;22.03;54.71
84443;BME280;74681;0.000;0.000;2024-01-30T03:44:45;101141.56;;;22.04;54.56
84443;BME280;74681;0.000;0.000;2024-01-30T03:47:11;101140.72;;;22.04;54.62
84443;BME280;74681;0.000;0.000;2024-01-30T03:49:36;101137.16;;;22.03;54.56
84443;BME280;74681;0.000;0.000;2024-01-30T03:52:02;101141.78;;;22.03;54.63
84443;BME280;74681;0.000;0.000;2024-01-30T03:54:27;101137.16;;;22.03;54.81
84443;BME280;74681;0.000;0.000;2024-01-30T03:56:52;101139.06;;;22.03;54.53
84443;BME280;74681;0.000;0.000;2024-01-30T03:59:18;101135.50;;;22.02;54.67
84443;BME280;74681;0.000;0.000;2024-01-30T04:01:48;101130.03;;;22.02;54.70
84443;BME280;74681;0.000;0.000;2024-01-30T04:04:13;101134.69;;;22.02;54.53
84443;BME280;74681;0.000;0.000;2024-01-30T04:06:39;101131.94;;;22.02;54.73
84443;BME280;74681;0.000;0.000;2024-01-30T04:09:04;101131.09;;;22.01;54.71
84443;BME280;74681;0.000;0.000;2024-01-30T04:11:29;101128.38;;;22.01;54.59
84443;BME280;74681;0.000;0.000;2024-01-30T04:13:55;101134.91;;;22.00;54.57
84443;BME280;74681;0.000;0.000;2024-01-30T04:16:20;101135.75;;;22.01;54.73
84443;BME280;74681;0.000;0.000;2024-01-30T04:18:47;101125.84;;;22.00;54.49
84443;BME280;74681;0.000;0.000;2024-01-30T04:21:12;101134.06;;;22.00;54.47
84443;BME280;74681;0.000;0.000;2024-01-30T04:23:37;101126.69;;;22.00;54.52
84443;BME280;74681;0.000;0.000;2024-01-30T04:26:03;101134.06;;;22.00;54.57
84443;BME280;74681;0.000;0.000;2024-01-30T04:28:28;101124.22;;;21.99;54.70
84443;BME280;74681;0.000;0.000;2024-01-30T04:30:55;101121.47;;;21.99;54.57
84443;BME280;74681;0.000;0.000;2024-01-30T04:33:20;101113.28;;;21.99;54.62
84443;BME280;74681;0.000;0.000;2024-01-30T04:35:45;101121.47;;;21.99;54.55
84443;BME280;74681;0.000;0.000;2024-01-30T04:38:11;101129.69;;;21.99;54.51
84443;BME280;74681;0.000;0.000;2024-01-30T04:40:36;101131.59;;;21.98;54.48
84443;BME280;74681;0.000;0.000;2024-01-30T04:43:01;101128.00;;;21.98;54.37
84443;BME280;74681;0.000;0.000;2024-01-30T04:45:27;101126.13;;;21.98;54.58
84443;BME280;74681;0.000;0.000;2024-01-30T04:47:52;101132.66;;;21.97;54.47
84443;BME280;74681;0.000;0.000;2024-01-30T04:50:17;101127.16;;;21.97;54.54
84443;BME280;74681;0.000;0.000;2024-01-30T04:52:44;101138.13;;;21.97;54.62
84443;BME280;74681;0.000;0.000;2024-01-30T04:55:09;101131.00;;;21.96;54.34
84443;BME280;74681;0.000;0.000;2024-01-30T04:57:34;101132.06;;;21.95;54.40
84443;BME280;74681;0.000;0.000;2024-01-30T05:00:00;101133.72;;;21.96;54.41
84443;BME280;74681;0.000;0.000;2024-01-30T05:02:25;101128.25;;;21.96;54.59
84443;BME280;74681;0.000;0.000;2024-01-30T05:04:51;101131.00;;;21.96;54.40
84443;BME280;74681;0.000;0.000;2024-01-30T05:07:16;101132.91;;;21.96;54.63
84443;BME280;74681;0.000;0.000;2024-01-30T05:09:42;101133.13;;;21.94;54.52
84443;BME280;74681;0.000;0.000;2024-01-30T05:12:07;101136.69;;;21.95;54.52
84443;BME280;74681;0.000;0.000;2024-01-30T05:14:33;101142.16;;;21.95;54.42
84443;BME280;74681;0.000;0.000;2024-01-30T05:16:58;101146.78;;;21.94;54.49
84443;BME280;74681;0.000;0.000;2024-01-30T05:19:23;101137.78;;;21.94;54.50
84443;BME280;74681;0.000;0.000;2024-01-30T05:21:49;101144.06;;;21.94;54.39
84443;BME280;74681;0.000;0.000;2024-01-30T05:24:14;101151.47;;;21.94;54.25
84443;BME280;74681;0.000;0.000;2024-01-30T05:26:40;101152.53;;;21.93;54.33
84443;BME280;74681;0.000;0.000;2024-01-30T05:29:06;101143.47;;;21.92;54.49
84443;BME280;74681;0.000;0.000;2024-01-30T05:31:33;101150.63;;;21.93;54.32
84443;BME280;74681;0.000;0.000;2024-01-30T05:33:59;101155.25;;;21.93;54.30
84443;BME280;74681;0.000;0.000;2024-01-30T05:36:25;101150.84;;;21.92;54.32
84443;BME280;74681;0.000;0.000;2024-01-30T05:38:50;101157.16;;;21.92;54.45
84443;BME280;74681;0.000;0.000;2024-01-30T05:41:16;101162.63;;;21.92;54.40
84443;BME280;74681;0.000;0.000;2024-01-30T05:43:41;101169.19;;;21.91;54.40
84443;BME280;74681;0.000;0.000;2024-01-30T05:46:07;101167.25;;;21.92;54.25
84443;BME280;74681;0.000;0.000;2024-01-30T05:48:32;101164.78;;;21.90;54.40
84443;BME280;74681;0.000;0.000;2024-01-30T05:50:58;101168.56;;;21.89;54.23
84443;BME280;74681;0.000;0.000;2024-01-30T05:53:25;101162.25;;;21.89;54.25
84443;BME280;74681;0.000;0.000;2024-01-30T05:55:50;101161.19;;;21.90;54.28
84443;BME280;74681;0.000;0.000;2024-01-30T05:58:15;101165.00;;;21.89;54.34
84443;BME280;74681;0.000;0.000;2024-01-30T06:00:41;101164.19;;;21.88;54.27
84443;BME280;74681;0.000;0.000;2024-01-30T06:03:07;101162.03;;;21.90;54.37
84443;BME280;74681;0.000;0.000;2024-01-30T06:05:32;101161.78;;;21.92;54.59
84443;BME280;74681;0.000;0.000;2024-01-30T06:07:58;101167.88;;;21.94;54.69
84443;BME280;74681;0.000;0.000;2024-01-30T06:10:23;101165.72;;;21.96;55.10
84443;BME280;74681;0.000;0.000;2024-01-30T06:12:48;101170.94;;;21.97;55.07
84443;BME280;74681;0.000;0.000;2024-01-30T06:15:14;101181.88;;;21.97;54.93
84443;BME280;74681;0.000;0.000;2024-01-30T06:17:39;101175.59;;;21.97;55.32
84443;BME280;74681;0.000;0.000;2024-01-30T06:20:05;101172.88;;;21.97;55.21
84443;BME280;74681;0.000;0.000;2024-01-30T06:22:30;101174.50;;;21.98;55.20
84443;BME280;74681;0.000;0.000;2024-01-30T06:24:59;101193.44;;;21.99;55.37
84443;BME280;74681;0.000;0.000;2024-01-30T06:27:24;101185.81;;;22.01;55.53
84443;BME280;74681;0.000;0.000;2024-01-30T06:29:49;101184.97;;;22.01;55.80
84443;BME280;74681;0.000;0.000;2024-01-30T06:32:15;101171.31;;;22.01;55.34
84443;BME280;74681;0.000;0.000;2024-01-30T06:34:41;101177.84;;;22.00;55.51
84443;BME280;74681;0.000;0.000;2024-01-30T06:37:06;101176.19;;;21.99;55.72
84443;BME280;74681;0.000;0.000;2024-01-30T06:39:31;101183.56;;;21.98;55.21
84443;BME280;74681;0.000;0.000;2024-01-30T06:41:57;101181.88;;;21.97;55.35
84443;BME280;74681;0.000;0.000;2024-01-30T06:44:22;101188.44;;;21.96;55.14
84443;BME280;74681;0.000;0.000;2024-01-30T06:46:48;101173.34;;;21.94;54.81
84443;BME280;74681;0.000;0.000;2024-01-30T06:49:13;101180.72;;;21.93;54.75
84443;BME280;74681;0.000;0.000;2024-01-30T06:51:38;101175.47;;;21.92;54.52
84443;BME280;74681;0.000;0.000;2024-01-30T06:54:04;101181.75;;;21.92;54.44
84443;BME280;74681;0.000;0.000;2024-01-30T06:56:29;101173.81;;;21.91;54.22
84443;BME280;74681;0.000;0.000;2024-01-30T06:58:55;101169.41;;;21.90;53.79
84443;BME280;74681;0.000;0.000;2024-01-30T07:01:20;101181.66;;;21.87;53.64
84443;BME280;74681;0.000;0.000;2024-01-30T07:03:46;101183.78;;;21.85;53.31
84443;BME280;74681;0.000;0.000;2024-01-30T07:06:11;101184.59;;;21.86;53.67
84443;BME280;74681;0.000;0.000;2024-01-30T07:08:37;101183.34;;;21.88;53.94
84443;BME280;74681;0.000;0.000;2024-01-30T07:11:07;101181.19;;;21.90;54.25
84443;BME280;74681;0.000;0.000;2024-01-30T07:13:33;101187.25;;;21.92;54.62
84443;BME280;74681;0.000;0.000;2024-01-30T07:15:59;101189.75;;;21.94;54.91
84443;BME280;74681;0.000;0.000;2024-01-30T07:18:24;101190.34;;;21.96;55.17
84443;BME280;74681;0.000;0.000;2024-01-30T07:20:50;101188.44;;;21.96;55.17
84443;BME280;74681;0.000;0.000;2024-01-30T07:23:16;101197.13;;;21.93;54.80
84443;BME280;74681;0.000;0.000;2024-01-30T07:25:45;101188.06;;;21.93;54.69
84443;BME280;74681;0.000;0.000;2024-01-30T07:28:13;101187.25;;;21.92;54.63
84443;BME280;74681;0.000;0.000;2024-01-30T07:30:42;101190.22;;;21.91;54.57
84443;BME280;74681;0.000;0.000;2024-01-30T07:33:07;101187.72;;;21.89;54.24
84443;BME280;74681;0.000;0.000;2024-01-30T07:35:35;101186.88;;;21.89;54.08
84443;BME280;74681;0.000;0.000;2024-01-30T07:38:03;101179.75;;;21.88;54.00
84443;BME280;74681;0.000;0.000;2024-01-30T07:40:29;101185.22;;;21.88;54.01
84443;BME280;74681;0.000;0.000;2024-01-30T07:42:55;101188.81;;;21.88;53.80
84443;BME280;74681;0.000;0.000;2024-01-30T07:45:20;101186.28;;;21.87;53.75
84443;BME280;74681;0.000;0.000;2024-01-30T07:47:48;101189.03;;;21.87;53.55
84443;BME280;74681;0.000;0.000;2024-01-30T07:50:14;101182.69;;;21.86;53.64
84443;BME280;74681;0.000;0.000;2024-01-30T07:52:41;101176.41;;;21.86;53.71
84443;BME280;74681;0.000;0.000;2024-01-30T07:55:10;101187.34;;;21.86;53.77
84443;BME280;74681;0.000;0.000;2024-01-30T07:57:55;101174.72;;;21.85;53.61
84443;BME280;74681;0.000;0.000;2024-01-30T08:00:22;101179.13;;;21.86;53.54
84443;BME280;74681;0.000;0.000;2024-01-30T08:02:50;101184.84;;;21.84;53.36
84443;BME280;74681;0.000;0.000;2024-01-30T08:05:15;101175.56;;;21.85;53.49
84443;BME280;74681;0.000;0.000;2024-01-30T08:07:41;101181.25;;;21.84;53.41
84443;BME280;74681;0.000;0.000;2024-01-30T08:10:11;101184.84;;;21.84;53.49
84443;BME280;74681;0.000;0.000;2024-01-30T08:12:36;101190.31;;;21.84;53.31
84443;BME280;74681;0.000;0.000;2024-01-30T08:15:05;101189.47;;;21.84;53.41
84443;BME280;74681;0.000;0.000;2024-01-30T08:17:31;101184.00;;;21.84;53.53
84443;BME280;74681;0.000;0.000;2024-01-30T08:19:57;101184.00;;;21.84;53.43
84443;BME280;74681;0.000;0.000;2024-01-30T08:22:22;101180.41;;;21.83;53.18
84443;BME280;74681;0.000;0.000;2024-01-30T08:24:47;101187.56;;;21.84;53.34
84443;BME280;74681;0.000;0.000;2024-01-30T08:27:13;101185.88;;;21.83;53.33
84443;BME280;74681;0.000;0.000;2024-01-30T08:29:39;101192.19;;;21.84;53.37
84443;BME280;74681;0.000;0.000;2024-01-30T08:32:05;101191.34;;;21.83;53.24
84443;BME280;74681;0.000;0.000;2024-01-30T08:34:32;101191.34;;;21.83;53.13
84443;BME280;74681;0.000;0.000;2024-01-30T08:36:58;101187.81;;;21.83;53.14
84443;BME280;74681;0.000;0.000;2024-01-30T08:39:24;101192.44;;;21.82;53.05
84443;BME280;74681;0.000;0.000;2024-01-30T08:41:50;101204.22;;;21.83;52.64
84443;BME280;74681;0.000;0.000;2024-01-30T08:44:16;101197.91;;;21.82;52.75
84443;BME280;74681;0.000;0.000;2024-01-30T08:46:43;101200.66;;;21.82;52.27
84443;BME280;74681;0.000;0.000;2024-01-30T08:49:09;101198.75;;;21.83;52.44
84443;BME280;74681;0.000;0.000;2024-01-30T08:51:35;101204.22;;;21.83;52.64
84443;BME280;74681;0.000;0.000;2024-01-30T08:54:00;101199.56;;;21.83;52.26
84443;BME280;74681;0.000;0.000;2024-01-30T08:56:26;101203.38;;;21.82;52.20
84443;BME280;74681;0.000;0.000;2024-01-30T08:58:52;101201.50;;;21.83;52.22
84443;BME280;74681;0.000;0.000;2024-01-30T09:01:18;101199.56;;;21.83;51.84
84443;BME280;74681;0.000;0.000;2024-01-30T09:03:43;101198.50;;;21.84;51.94
84443;BME280;74681;0.000;0.000;2024-01-30T09:06:10;101193.88;;;21.85;52.01
84443;BME280;74681;0.000;0.000;2024-01-30T09:08:36;101195.78;;;21.84;51.99
84443;BME280;74681;0.000;0.000;2024-01-30T09:11:02;101193.88;;;21.85;52.19
84443;BME280;74681;0.000;0.000;2024-01-30T09:13:29;101193.03;;;21.84;52.31
84443;BME280;74681;0.000;0.000;2024-01-30T09:15:55;101189.25;;;21.85;52.19
84443;BME280;74681;0.000;0.000;2024-01-30T09:18:21;101199.09;;;21.86;52.04
84443;BME280;74681;0.000;0.000;2024-01-30T09:20:47;101198.06;;;21.87;52.06
84443;BME280;74681;0.000;0.000;2024-01-30T09:23:13;101190.69;;;21.88;52.05
84443;BME280;74681;0.000;0.000;2024-01-30T09:25:38;101189.88;;;21.87;52.28
84443;BME280;74681;0.000;0.000;2024-01-30T09:28:04;101185.22;;;21.88;52.25
84443;BME280;74681;0.000;0.000;2024-01-30T09:30:29;101183.34;;;21.88;52.12
84443;BME280;74681;0.000;0.000;2024-01-30T09:32:55;101184.97;;;21.89;52.05
84443;BME280;74681;0.000;0.000;2024-01-30T09:35:21;101188.56;;;21.90;52.31
84443;BME280;74681;0.000;0.000;2024-01-30T09:37:47;101188.34;;;21.91;52.19
84443;BME280;74681;0.000;0.000;2024-01-30T09:40:13;101196.53;;;21.91;52.10
84443;BME280;74681;0.000;0.000;2024-01-30T09:42:38;101186.41;;;21.92;52.17
84443;BME280;74681;0.000;0.000;2024-01-30T09:45:05;101189.13;;;21.92;52.26
84443;BME280;74681;0.000;0.000;2024-01-30T09:47:32;101195.44;;;21.92;52.17
84443;BME280;74681;0.000;0.000;2024-01-30T09:49:57;101190.81;;;21.93;52.32
84443;BME280;74681;0.000;0.000;2024-01-30T09:52:23;101193.53;;;21.93;52.26
84443;BME280;74681;0.000;0.000;2024-01-30T09:54:49;101195.22;;;21.94;52.11
84443;BME280;74681;0.000;0.000;2024-01-30T09:57:16;101196.88;;;21.95;52.28
84443;BME280;74681;0.000;0.000;2024-01-30T09:59:41;101189.50;;;21.95;52.16
84443;BME280;74681;0.000;0.000;2024-01-30T10:02:07;101197.72;;;21.95;52.14
84443;BME280;74681;0.000;0.000;2024-01-30T10:04:33;101189.50;;;21.95;52.23
84443;BME280;74681;0.000;0.000;2024-01-30T10:07:00;101192.00;;;21.97;52.34
84443;BME280;74681;0.000;0.000;2024-01-30T10:09:26;101199.38;;;21.96;52.25
84443;BME280;74681;0.000;0.000;2024-01-30T10:11:52;101195.56;;;21.97;52.20
84443;BME280;74681;0.000;0.000;2024-01-30T10:14:17;101193.66;;;21.98;52.14
84443;BME280;74681;0.000;0.000;2024-01-30T10:16:45;101192.59;;;21.99;52.22
84443;BME280;74681;0.000;0.000;2024-01-30T10:19:11;101192.59;;;21.99;52.17
84443;BME280;74681;0.000;0.000;2024-01-30T10:21:36;101193.44;;;21.99;52.05
84443;BME280;74681;0.000;0.000;2024-01-30T10:24:03;101186.03;;;22.00;52.09
84443;BME280;74681;0.000;0.000;2024-01-30T10:26:30;101186.03;;;22.00;52.19
84443;BME280;74681;0.000;0.000;2024-01-30T10:28:59;101184.13;;;22.00;52.20
84443;BME280;74681;0.000;0.000;2024-01-30T10:31:24;101176.78;;;22.01;52.16
84443;BME280;74681;0.000;0.000;2024-01-30T10:33:50;101177.59;;;22.01;52.16
84443;BME280;74681;0.000;0.000;2024-01-30T10:36:15;101178.19;;;22.03;52.05
84443;BME280;74681;0.000;0.000;2024-01-30T10:38:42;101169.16;;;22.03;51.98
84443;BME280;74681;0.000;0.000;2024-01-30T10:41:08;101168.09;;;22.04;52.20
84443;BME280;74681;0.000;0.000;2024-01-30T10:43:40;101162.63;;;22.04;52.18
84443;BME280;74681;0.000;0.000;2024-01-30T10:46:18;101156.09;;;22.05;52.25
84443;BME280;74681;0.000;0.000;2024-01-30T10:48:46;101161.56;;;22.05;52.05
84443;BME280;74681;0.000;0.000;2024-01-30T10:51:15;101156.91;;;22.05;52.18
84443;BME280;74681;0.000;0.000;2024-01-30T10:53:41;101153.09;;;22.07;52.11
84443;BME280;74681;0.000;0.000;2024-01-30T10:56:08;101151.19;;;22.07;52.04
84443;BME280;74681;0.000;0.000;2024-01-30T10:58:35;101155.59;;;22.08;51.91
84443;BME280;74681;0.000;0.000;2024-01-30T11:01:00;101151.78;;;22.09;52.11
84443;BME280;74681;0.000;0.000;2024-01-30T11:03:26;101145.72;;;22.07;52.10
84443;BME280;74681;0.000;0.000;2024-01-30T11:05:51;101149.03;;;22.09;52.02
84443;BME280;74681;0.000;0.000;2024-01-30T11:08:26;101143.56;;;22.09;51.90
84443;BME280;74681;0.000;0.000;2024-01-30T11:10:56;101146.91;;;22.11;51.94
84443;BME280;74681;0.000;0.000;2024-01-30T11:13:28;101142.25;;;22.12;51.87
84443;BME280;74681;0.000;0.000;2024-01-30T11:15:54;101141.19;;;22.13;52.13
84443;BME280;74681;0.000;0.000;2024-01-30T11:18:22;101135.72;;;22.13;51.77
84443;BME280;74681;0.000;0.000;2024-01-30T11:20:48;101135.72;;;22.13;52.15
84443;BME280;74681;0.000;0.000;2024-01-30T11:23:13;101132.72;;;22.14;51.99
84443;BME280;74681;0.000;0.000;2024-01-30T11:25:39;101123.72;;;22.14;51.88
84443;BME280;74681;0.000;0.000;2024-01-30T11:28:04;101130.84;;;22.15;51.95
84443;BME280;74681;0.000;0.000;2024-01-30T11:30:30;101120.72;;;22.15;51.91
84443;BME280;74681;0.000;0.000;2024-01-30T11:33:06;101125.38;;;22.15;51.73
84443;BME280;74681;0.000;0.000;2024-01-30T11:35:32;101125.38;;;22.15;51.73
84443;BME280;74681;0.000;0.000;2024-01-30T11:37:58;101113.34;;;22.16;51.85
84443;BME280;74681;0.000;0.000;2024-01-30T11:40:23;101111.69;;;22.15;51.76
84443;BME280;74681;0.000;0.000;2024-01-30T11:42:51;101120.72;;;22.15;51.48
84443;BME280;74681;0.000;0.000;2024-01-30T11:45:17;101118.84;;;22.16;51.60
84443;BME280;74681;0.000;0.000;2024-01-30T11:47:42;101120.47;;;22.17;51.50
84443;BME280;74681;0.000;0.000;2024-01-30T11:50:08;101117.75;;;22.17;51.55
84443;BME280;74681;0.000;0.000;2024-01-30T11:52:36;101108.72;;;22.16;51.35
84443;BME280;74681;0.000;0.000;2024-01-30T11:55:03;101106.78;;;22.17;51.21
84443;BME280;74681;0.000;0.000;2024-01-30T11:57:32;101106.22;;;22.15;51.21
84443;BME280;74681;0.000;0.000;2024-01-30T12:00:01;101102.16;;;22.17;51.30
84443;BME280;74681;0.000;0.000;2024-01-30T12:02:29;101094.78;;;22.18;51.36
84443;BME280;74681;0.000;0.000;2024-01-30T12:04:56;101084.69;;;22.18;51.23
84443;BME280;74681;0.000;0.000;2024-01-30T12:07:22;101084.69;;;22.18;51.36
84443;BME280;74681;0.000;0.000;2024-01-30T12:09:56;101090.72;;;22.20;51.24
84443;BME280;74681;0.000;0.000;2024-01-30T12:12:26;101086.34;;;22.19;51.20
84443;BME280;74681;0.000;0.000;2024-01-30T12:14:52;101079.78;;;22.20;51.46
84443;BME280;74681;0.000;0.000;2024-01-30T12:17:26;101074.09;;;22.22;51.20
84443;BME280;74681;0.000;0.000;2024-01-30T12:19:51;101073.00;;;22.23;51.17
84443;BME280;74681;0.000;0.000;2024-01-30T12:22:19;101072.16;;;22.22;51.31
84443;BME280;74681;0.000;0.000;2024-01-30T12:24:45;101064.56;;;22.24;51.37
84443;BME280;74681;0.000;0.000;2024-01-30T12:27:14;101059.91;;;22.25;51.26
84443;BME280;74681;0.000;0.000;2024-01-30T12:29:41;101067.03;;;22.26;51.13
84443;BME280;74681;0.000;0.000;2024-01-30T12:32:14;101056.09;;;22.26;51.42
84443;BME280;74681;0.000;0.000;2024-01-30T12:34:41;101057.75;;;22.27;51.31
84443;BME280;74681;0.000;0.000;2024-01-30T12:37:07;101055.03;;;22.27;51.20
84443;BME280;74681;0.000;0.000;2024-01-30T12:39:34;101054.78;;;22.28;51.31
84443;BME280;74681;0.000;0.000;2024-01-30T12:42:00;101052.03;;;22.28;51.18
84443;BME280;74681;0.000;0.000;2024-01-30T12:44:26;101049.28;;;22.28;51.34
84443;BME280;74681;0.000;0.000;2024-01-30T12:46:52;101050.13;;;22.29;51.21
84443;BME280;74681;0.000;0.000;2024-01-30T12:49:17;101049.06;;;22.30;51.16
84443;BME280;74681;0.000;0.000;2024-01-30T12:51:43;101056.19;;;22.31;51.30
84443;BME280;74681;0.000;0.000;2024-01-30T12:54:09;101042.50;;;22.31;51.33
84443;BME280;74681;0.000;0.000;2024-01-30T12:56:34;101048.81;;;22.31;51.14